Terminal Aerodrome Forecast
Issued by NWS Caribou, ME

Current Version | Previous Version | Text Only | Print | Product List | Glossary On
Versions: 1 2 3 4 5 6 7 8 9 10 11 12 13 14 15 16 17 18 19 20 21 22 23
000
FTUS41 KCAR 291733
TAFCAR
TAF
KCAR 291733Z 2918/3018 16007KT P6SM BKN015 OVC040
     FM292100 15007KT P6SM OVC025
     FM300400 17010KT P6SM OVC015
     FM300600 18010KT 6SM -SHRA OVC008
     FM300900 18008KT 4SM -SHRA BR OVC005
     FM301200 18008KT P6SM OVC005=

USA.gov is the U.S. government's official web portal to all federal, state and local government web resources and services.